Terminal Aerodrome Forecast
Issued by NWS

Home | Current Version | Previous Version | Text Only | Print | Product List | Glossary On
Versions: 1 2 3 4 5 6 7 8 9 10 11 12 13 14 15 16 17 18 19
000
FTUS43 KMQT 241700
TAFCMX
TAF
KCMX 241735Z 2418/2518 20005KT P6SM SCT140
     FM250100 22009KT P6SM SCT150
     FM250500 25013KT P6SM SCT080
     FM251300 28017G25KT P6SM SKC=

USA.gov is the U.S. government's official web portal to all federal, state and local government web resources and services.